Hovedside
METAR-TAF:

METAR-TAF

Lufthavner :

Jinnah internasjonale lufthavn

Karachi, Pakistan

breddegrad: 24-54N, lengdegrad: 067-08E, høyde over havet: 21 m

Gjeldene værobservasjon

Denne rapporten ble laget for 36 minutter siden, klokken 03:25 UTC
Vind 9 kt fra Vest
Temperatur 27°C
Luftfuktighet 74%
Trykk 1008 hPa
Sikt: 6000 m
Brutte skyer i en høyde av 2000 ft

METAR: OPKC 200325Z 27009KT 6000 BKN020 27/22 Q1008 NOSIG

Tid: 09:01 (04:01 UTC)

Varsel

Denne rapporten ble laget for 3 timer og 31 minutter siden, klokken 00:30 UTC
Varsel gyldig fra 20. klokken 03 UTC til 20. klokken 12 UTC
Vind 8 kt fra Vest-sørvest med vindkast opp mot 18 kt
Sikt: 6000 m
Spredte skyer i en høyde av 2500 ft

TAF: OPKC 200030Z 2003/2012 24008G18KT 6000 SCT025

Værobservasjoner og værvarsel for over 4000 flyplasser (METAR- og TAF-rapporter).

Tilgjengelige stasjoner er representert av de røde og gule prikkene på kartet.

Hold musepekeren over prikken for å se navnet på stasjonen.

Klikk så for å se værobservasjoner og -varsler.

For å forandre kartet kan du klikke på den grønne knappen med svart kryss for å zoome inn, på den grønne knappen med strek for å zoome ut, eller på de grønne pilene for å se tilstøtende kart.


METAR-TAF: